Impacts METAR Board
IDs:

KLNC - Lancaster Arpt, TX, US

Updated at: 0500 UTC 19 Aug 2019
Potential Impact None Slight Moderate High
Time 18/17Z 18/18Z 18/19Z 18/20Z 18/21Z 18/22Z 18/23Z 19/00Z 19/01Z 19/02Z 19/03Z 19/04Z 19/05Z
Temp91 93 95 97 98 99 98 97 94 90 87 84 82
Dewpt72 71 70 70 69 68 68 68 69 68 68 69 70
Altim29.92 29.91 29.90 29.88 29.87 29.86 29.84 29.83 29.84 29.85 29.88 29.90 29.92
VIS10 10 10 10 10 10 10 10 10 10 10 10 10
CIG-- -- -- -- -- -- -- -- -- -- -- -- --
CoverSCTCLRCLRCLRCLRCLRCLRCLRCLRCLRCLRCLRCLR
FltCatVFRVFRVFRVFRVFRVFRVFRVFRVFRVFRVFRVFRVFR
WX--------------------------
WDir170170180140160160180160140130120110180
WSpd13 10 10 11 6 8 9 10 8 6 3 3 4
WGst17 -- 15 -- -- 14 14 -- -- -- -- -- --
Raw hourly METARs
KLNC 181655Z AUTO 17013G17KT 10SM SCT035 33/22 A2992 RMK AO2 T03260222
KLNC 181755Z AUTO 17010KT 10SM CLR 34/22 A2991 RMK AO2 T03400217 10341 20257
KLNC 181855Z AUTO 18010G15KT 10SM CLR 35/21 A2990 RMK AO2 T03510211
KLNC 181955Z AUTO 14011KT 10SM CLR 36/21 A2988 RMK AO2 T03610210
KLNC 182055Z AUTO 16006KT 10SM CLR 37/21 A2987 RMK AO2 T03690207
KLNC 182155Z AUTO 16008G14KT 10SM CLR 37/20 A2986 RMK AO2 T03740201
KLNC 182255Z AUTO 18009G14KT 10SM CLR 37/20 A2984 RMK AO2 T03690200
KLNC 182355Z AUTO 16010KT 10SM CLR 36/20 A2983 RMK AO2 T03610202 10378 20340
KLNC 190055Z AUTO 14008KT 10SM CLR 34/21 A2984 RMK AO2 T03420205
KLNC 190155Z AUTO 13006KT 10SM CLR 32/20 A2985 RMK AO2 T03210200
KLNC 190255Z AUTO 12003KT 10SM CLR 30/20 A2988 RMK AO2 T03040198
KLNC 190355Z AUTO 11003KT 10SM CLR 29/20 A2990 RMK AO2 T02900203
KLNC 190455Z AUTO 18004KT 10SM CLR 28/21 A2992 RMK AO2 T02800210



Page loaded:  05:27 UTC  |   10:27 PM Pacific  |   11:27 PM Mountain  |   12:27 AM Central  |   01:27 AM Eastern

 

ADVISORIES

FORECASTS

FORECASTS

OBSERVATIONS

USER TOOLS

ABOUT US